Pittsburgh, Pennsylvania
Traffic Map
Current Weather Conditions
Pittsburgh, Pennsylvania
Clear
Clear
73°
Feels Like: 73°
Wind Chill: 73° Ceiling: Unl
Heat Index: 73° Visibility: 10mi
Dew Point: 46° Wind: 18mph
Humidity: 38% Direction: 220° (SW)
Pressure: 30.06in Gusts: 28mph
Raw Report DataKAGC 242053Z 22016G24KT 10SM CLR 23/08 A3006 RMK AO2 PK WND 22026/2003 SLP184 T02280078 56021
Traffic Incident Summary
Active as of:
Severity:
Category:
InformationThere was an issue retrieving the traffic information for this location. Please try a different location or try again shortly.
Advertisements
Track Severe Weather on mobile